Erwin, South Dakota
Current Conditions -  °F | °C
As of 9:53 PM on Wednesday 17 Dec 2014 (Local Time) from KATY Reporting Station
Clear Clear  
Wind Chill:   Ceiling: Unl
Heat Index:   Visibility: 10mi
Dew Point:   Wind: 0mph
Humidity: 87%   Direction: NA
Pressure: 30.22"   Gusts: NA
Location:  44.49°N, 97.45°W
Report Text: KATY 180353Z AUTO 00000KT 10SM CLR M14/M16 A3022 RMK AO2 SLP275 T11441161
Loading
Personal Weather Stations






























Interactive Weather Map New forecast layout! Learn more

10-Day Weather Forecast

Advertisements
Track Severe Weather on mobile